sensor_id;sensor_type;location;lat;lon;timestamp;pressure;altitude;pressure_sealevel;temperature;humidity
59407;BME280;45208;32.616;-115.472;2022-07-10T00:02:04;101025.34;;;48.72;3.66
59407;BME280;45208;32.616;-115.472;2022-07-10T00:04:33;101026.38;;;48.52;3.90
59407;BME280;45208;32.616;-115.472;2022-07-10T00:07:00;101027.97;;;48.64;3.60
59407;BME280;45208;32.616;-115.472;2022-07-10T00:09:28;101026.41;;;48.97;3.37
59407;BME280;45208;32.616;-115.472;2022-07-10T00:11:55;101015.56;;;48.13;3.60
59407;BME280;45208;32.616;-115.472;2022-07-10T00:14:22;101012.75;;;48.92;3.17
59407;BME280;45208;32.616;-115.472;2022-07-10T00:16:49;101011.13;;;49.24;2.93
59407;BME280;45208;32.616;-115.472;2022-07-10T00:19:15;100997.53;;;50.35;3.39
59407;BME280;45208;32.616;-115.472;2022-07-10T00:21:42;100997.66;;;50.13;2.92
59407;BME280;45208;32.616;-115.472;2022-07-10T00:24:12;101000.41;;;50.35;3.14
59407;BME280;45208;32.616;-115.472;2022-07-10T00:26:39;100993.53;;;49.28;3.69
59407;BME280;45208;32.616;-115.472;2022-07-10T00:29:09;100989.78;;;47.93;3.92
59407;BME280;45208;32.616;-115.472;2022-07-10T00:31:37;100992.50;;;46.74;4.66
59407;BME280;45208;32.616;-115.472;2022-07-10T00:34:04;100986.38;;;46.92;4.25
59407;BME280;45208;32.616;-115.472;2022-07-10T00:36:31;100991.66;;;47.96;5.85
59407;BME280;45208;32.616;-115.472;2022-07-10T00:38:58;100988.66;;;47.74;3.94
59407;BME280;45208;32.616;-115.472;2022-07-10T00:41:24;100980.91;;;46.94;4.64
59407;BME280;45208;32.616;-115.472;2022-07-10T00:43:56;100979.53;;;46.32;4.99
59407;BME280;45208;32.616;-115.472;2022-07-10T00:46:27;100983.84;;;46.43;5.07
59407;BME280;45208;32.616;-115.472;2022-07-10T00:48:55;100982.81;;;45.73;5.02
59407;BME280;45208;32.616;-115.472;2022-07-10T00:51:25;100985.31;;;45.45;4.64
59407;BME280;45208;32.616;-115.472;2022-07-10T00:53:52;100988.13;;;44.75;5.27
59407;BME280;45208;32.616;-115.472;2022-07-10T00:56:23;100991.59;;;43.96;5.85
59407;BME280;45208;32.616;-115.472;2022-07-10T00:58:50;100985.31;;;44.07;5.90
59407;BME280;45208;32.616;-115.472;2022-07-10T01:01:18;100977.75;;;44.78;7.94
59407;BME280;45208;32.616;-115.472;2022-07-10T01:03:46;100979.91;;;44.83;5.49
59407;BME280;45208;32.616;-115.472;2022-07-10T01:06:13;100975.31;;;44.56;5.33
59407;BME280;45208;32.616;-115.472;2022-07-10T01:08:41;100974.97;;;44.24;5.53
59407;BME280;45208;32.616;-115.472;2022-07-10T01:11:14;100976.53;;;44.11;5.78
59407;BME280;45208;32.616;-115.472;2022-07-10T01:13:42;100974.00;;;44.72;5.77
59407;BME280;45208;32.616;-115.472;2022-07-10T01:16:11;100976.06;;;44.27;6.25
59407;BME280;45208;32.616;-115.472;2022-07-10T01:18:38;100975.00;;;43.86;5.92
59407;BME280;45208;32.616;-115.472;2022-07-10T01:21:05;100969.53;;;43.73;5.64
59407;BME280;45208;32.616;-115.472;2022-07-10T01:23:32;100974.97;;;43.71;6.07
59407;BME280;45208;32.616;-115.472;2022-07-10T01:26:02;100973.72;;;43.63;7.22
59407;BME280;45208;32.616;-115.472;2022-07-10T01:28:30;100977.63;;;43.51;5.99
59407;BME280;45208;32.616;-115.472;2022-07-10T01:30:57;100977.81;;;43.47;5.88
59407;BME280;45208;32.616;-115.472;2022-07-10T01:33:26;100978.16;;;43.16;6.15
59407;BME280;45208;32.616;-115.472;2022-07-10T01:35:52;100972.34;;;43.01;6.52
59407;BME280;45208;32.616;-115.472;2022-07-10T01:38:22;100965.63;;;43.04;5.56
59407;BME280;45208;32.616;-115.472;2022-07-10T01:40:49;100971.72;;;42.97;6.07
59407;BME280;45208;32.616;-115.472;2022-07-10T01:43:17;100968.75;;;42.82;5.95
59407;BME280;45208;32.616;-115.472;2022-07-10T01:45:44;100971.31;;;42.71;6.31
59407;BME280;45208;32.616;-115.472;2022-07-10T01:48:11;100969.59;;;42.74;6.76
59407;BME280;45208;32.616;-115.472;2022-07-10T01:50:38;100973.09;;;43.11;6.79
59407;BME280;45208;32.616;-115.472;2022-07-10T01:53:08;100974.81;;;43.41;6.00
59407;BME280;45208;32.616;-115.472;2022-07-10T01:55:35;100967.81;;;43.42;7.33
59407;BME280;45208;32.616;-115.472;2022-07-10T01:58:02;100964.78;;;43.46;6.92
59407;BME280;45208;32.616;-115.472;2022-07-10T02:00:30;100960.59;;;43.32;6.28
59407;BME280;45208;32.616;-115.472;2022-07-10T02:02:57;100978.06;;;43.25;6.75
59407;BME280;45208;32.616;-115.472;2022-07-10T02:05:46;100979.06;;;43.22;6.60
59407;BME280;45208;32.616;-115.472;2022-07-10T02:08:12;100970.28;;;43.26;6.59
59407;BME280;45208;32.616;-115.472;2022-07-10T02:10:39;100971.94;;;43.18;6.28
59407;BME280;45208;32.616;-115.472;2022-07-10T02:13:06;100957.13;;;42.86;6.88
59407;BME280;45208;32.616;-115.472;2022-07-10T02:15:33;100971.31;;;42.71;6.65
59407;BME280;45208;32.616;-115.472;2022-07-10T02:17:59;100970.59;;;42.43;7.16
59407;BME280;45208;32.616;-115.472;2022-07-10T02:20:26;100965.56;;;42.11;7.06
59407;BME280;45208;32.616;-115.472;2022-07-10T02:22:53;100971.75;;;41.91;7.05
59407;BME280;45208;32.616;-115.472;2022-07-10T02:25:20;100974.59;;;41.73;7.18
59407;BME280;45208;32.616;-115.472;2022-07-10T02:27:46;100973.91;;;41.59;7.15
59407;BME280;45208;32.616;-115.472;2022-07-10T02:30:13;100976.91;;;41.38;7.37
59407;BME280;45208;32.616;-115.472;2022-07-10T02:32:43;100980.16;;;41.18;7.64
59407;BME280;45208;32.616;-115.472;2022-07-10T02:35:11;100983.28;;;41.01;7.67
59407;BME280;45208;32.616;-115.472;2022-07-10T02:37:38;100983.47;;;40.76;7.93
59407;BME280;45208;32.616;-115.472;2022-07-10T02:40:05;100978.03;;;40.69;7.61
59407;BME280;45208;32.616;-115.472;2022-07-10T02:42:32;100974.47;;;40.56;8.12
59407;BME280;45208;32.616;-115.472;2022-07-10T02:44:59;100991.78;;;40.39;8.02
59407;BME280;45208;32.616;-115.472;2022-07-10T02:47:26;100980.69;;;40.20;7.98
59407;BME280;45208;32.616;-115.472;2022-07-10T02:49:53;100983.22;;;40.17;7.84
59407;BME280;45208;32.616;-115.472;2022-07-10T02:52:20;100989.03;;;40.14;8.00
59407;BME280;45208;32.616;-115.472;2022-07-10T02:54:47;100982.28;;;39.99;7.94
59407;BME280;45208;32.616;-115.472;2022-07-10T02:57:14;100991.28;;;39.97;8.34
59407;BME280;45208;32.616;-115.472;2022-07-10T02:59:41;100989.00;;;39.92;8.60
59407;BME280;45208;32.616;-115.472;2022-07-10T03:02:09;100997.84;;;39.72;8.24
59407;BME280;45208;32.616;-115.472;2022-07-10T03:04:36;100988.44;;;39.84;8.44
59407;BME280;45208;32.616;-115.472;2022-07-10T03:07:05;100998.06;;;39.65;8.50
59407;BME280;45208;32.616;-115.472;2022-07-10T03:09:32;100994.91;;;39.63;9.02
59407;BME280;45208;32.616;-115.472;2022-07-10T03:12:01;100991.97;;;39.54;8.96
59407;BME280;45208;32.616;-115.472;2022-07-10T03:14:29;101003.56;;;39.60;8.70
59407;BME280;45208;32.616;-115.472;2022-07-10T03:16:56;100995.16;;;39.43;8.93
59407;BME280;45208;32.616;-115.472;2022-07-10T03:19:24;101011.34;;;39.08;9.91
59407;BME280;45208;32.616;-115.472;2022-07-10T03:21:53;101006.63;;;38.89;10.05
59407;BME280;45208;32.616;-115.472;2022-07-10T03:24:20;101007.41;;;38.77;9.41
59407;BME280;45208;32.616;-115.472;2022-07-10T03:26:47;101014.91;;;38.71;9.82
59407;BME280;45208;32.616;-115.472;2022-07-10T03:29:15;101016.28;;;38.66;10.00
59407;BME280;45208;32.616;-115.472;2022-07-10T03:31:42;101022.88;;;38.76;9.64
59407;BME280;45208;32.616;-115.472;2022-07-10T03:34:10;101020.19;;;38.56;10.75
59407;BME280;45208;32.616;-115.472;2022-07-10T03:36:37;101024.41;;;38.22;11.10
59407;BME280;45208;32.616;-115.472;2022-07-10T03:39:04;101027.25;;;38.06;10.55
59407;BME280;45208;32.616;-115.472;2022-07-10T03:41:30;101023.69;;;37.89;11.55
59407;BME280;45208;32.616;-115.472;2022-07-10T03:43:59;101033.06;;;37.86;11.40
59407;BME280;45208;32.616;-115.472;2022-07-10T03:46:26;101036.63;;;37.74;10.29
59407;BME280;45208;32.616;-115.472;2022-07-10T03:48:53;101042.72;;;37.56;11.28
59407;BME280;45208;32.616;-115.472;2022-07-10T03:51:20;101056.19;;;37.52;12.46
59407;BME280;45208;32.616;-115.472;2022-07-10T03:53:47;101055.72;;;37.70;10.70
59407;BME280;45208;32.616;-115.472;2022-07-10T03:56:13;101062.06;;;37.77;11.10
59407;BME280;45208;32.616;-115.472;2022-07-10T03:59:00;101056.97;;;37.69;11.54
59407;BME280;45208;32.616;-115.472;2022-07-10T04:01:29;101066.81;;;37.64;11.72
59407;BME280;45208;32.616;-115.472;2022-07-10T04:03:59;101055.13;;;37.95;11.07
59407;BME280;45208;32.616;-115.472;2022-07-10T04:06:28;101062.75;;;37.98;11.26
59407;BME280;45208;32.616;-115.472;2022-07-10T04:08:57;101073.13;;;37.88;12.59
59407;BME280;45208;32.616;-115.472;2022-07-10T04:11:27;101080.16;;;37.84;11.71
59407;BME280;45208;32.616;-115.472;2022-07-10T04:13:59;101076.56;;;38.12;10.76
59407;BME280;45208;32.616;-115.472;2022-07-10T04:16:26;101095.09;;;38.17;10.79
59407;BME280;45208;32.616;-115.472;2022-07-10T04:18:53;101087.13;;;38.12;11.05
59407;BME280;45208;32.616;-115.472;2022-07-10T04:21:20;101081.69;;;38.17;11.02
59407;BME280;45208;32.616;-115.472;2022-07-10T04:23:47;101088.03;;;38.25;10.29
59407;BME280;45208;32.616;-115.472;2022-07-10T04:26:14;101093.28;;;38.39;10.42
59407;BME280;45208;32.616;-115.472;2022-07-10T04:28:42;101092.41;;;38.42;10.98
59407;BME280;45208;32.616;-115.472;2022-07-10T04:31:09;101095.34;;;38.38;10.48
59407;BME280;45208;32.616;-115.472;2022-07-10T04:33:36;101110.19;;;38.30;10.75
59407;BME280;45208;32.616;-115.472;2022-07-10T04:36:03;101101.34;;;37.95;11.37
59407;BME280;45208;32.616;-115.472;2022-07-10T04:38:31;101110.41;;;37.74;11.61
59407;BME280;45208;32.616;-115.472;2022-07-10T04:40:58;101113.34;;;37.50;12.07
59407;BME280;45208;32.616;-115.472;2022-07-10T04:43:25;101106.84;;;37.34;12.13
59407;BME280;45208;32.616;-115.472;2022-07-10T04:45:52;101110.22;;;37.29;11.85
59407;BME280;45208;32.616;-115.472;2022-07-10T04:48:19;101114.38;;;37.04;13.64
59407;BME280;45208;32.616;-115.472;2022-07-10T04:50:46;101125.03;;;36.77;13.43
59407;BME280;45208;32.616;-115.472;2022-07-10T04:53:13;101124.28;;;36.53;13.26
59407;BME280;45208;32.616;-115.472;2022-07-10T04:55:41;101119.63;;;36.43;13.12
59407;BME280;45208;32.616;-115.472;2022-07-10T04:58:08;101117.81;;;36.33;12.49
59407;BME280;45208;32.616;-115.472;2022-07-10T05:00:34;101125.78;;;36.14;12.71
59407;BME280;45208;32.616;-115.472;2022-07-10T05:03:01;101131.69;;;36.00;13.63
59407;BME280;45208;32.616;-115.472;2022-07-10T05:05:28;101138.00;;;36.35;12.93
59407;BME280;45208;32.616;-115.472;2022-07-10T05:07:57;101138.53;;;36.49;12.04
59407;BME280;45208;32.616;-115.472;2022-07-10T05:10:25;101139.81;;;36.21;13.05
59407;BME280;45208;32.616;-115.472;2022-07-10T05:12:53;101133.34;;;35.97;13.16
59407;BME280;45208;32.616;-115.472;2022-07-10T05:15:20;101142.00;;;35.87;12.98
59407;BME280;45208;32.616;-115.472;2022-07-10T05:17:48;101138.25;;;35.66;12.78
59407;BME280;45208;32.616;-115.472;2022-07-10T05:20:14;101140.25;;;35.42;13.56
59407;BME280;45208;32.616;-115.472;2022-07-10T05:22:42;101147.16;;;35.34;13.63
59407;BME280;45208;32.616;-115.472;2022-07-10T05:25:14;101146.63;;;35.16;14.55
59407;BME280;45208;32.616;-115.472;2022-07-10T05:27:43;101141.50;;;35.07;14.32
59407;BME280;45208;32.616;-115.472;2022-07-10T05:30:11;101149.38;;;34.89;14.19
59407;BME280;45208;32.616;-115.472;2022-07-10T05:32:44;101141.03;;;34.75;14.53
59407;BME280;45208;32.616;-115.472;2022-07-10T05:35:13;101140.19;;;34.78;13.81
59407;BME280;45208;32.616;-115.472;2022-07-10T05:37:40;101142.31;;;34.70;13.88
59407;BME280;45208;32.616;-115.472;2022-07-10T05:40:07;101142.03;;;34.58;14.94
59407;BME280;45208;32.616;-115.472;2022-07-10T05:42:34;101138.50;;;34.50;14.17
59407;BME280;45208;32.616;-115.472;2022-07-10T05:45:01;101130.19;;;34.32;14.58
59407;BME280;45208;32.616;-115.472;2022-07-10T05:47:32;101124.59;;;34.25;14.76
59407;BME280;45208;32.616;-115.472;2022-07-10T05:50:02;101129.81;;;34.27;15.27
59407;BME280;45208;32.616;-115.472;2022-07-10T05:52:29;101127.09;;;34.16;15.79
59407;BME280;45208;32.616;-115.472;2022-07-10T05:54:59;101119.97;;;34.01;15.03
59407;BME280;45208;32.616;-115.472;2022-07-10T05:57:26;101119.59;;;33.99;15.28
59407;BME280;45208;32.616;-115.472;2022-07-10T05:59:52;101113.59;;;33.93;15.75
59407;BME280;45208;32.616;-115.472;2022-07-10T06:02:19;101119.69;;;33.88;15.37
59407;BME280;45208;32.616;-115.472;2022-07-10T06:04:47;101115.75;;;33.71;15.84
59407;BME280;45208;32.616;-115.472;2022-07-10T06:07:14;101121.06;;;33.62;15.65
59407;BME280;45208;32.616;-115.472;2022-07-10T06:09:41;101124.78;;;33.48;16.05
59407;BME280;45208;32.616;-115.472;2022-07-10T06:12:08;101122.38;;;33.47;15.81
59407;BME280;45208;32.616;-115.472;2022-07-10T06:14:35;101127.16;;;33.53;15.58
59407;BME280;45208;32.616;-115.472;2022-07-10T06:17:02;101123.13;;;33.51;15.51
59407;BME280;45208;32.616;-115.472;2022-07-10T06:19:29;101125.63;;;33.42;16.29
59407;BME280;45208;32.616;-115.472;2022-07-10T06:21:56;101123.59;;;33.39;15.60
59407;BME280;45208;32.616;-115.472;2022-07-10T06:24:41;101126.03;;;33.37;15.89
59407;BME280;45208;32.616;-115.472;2022-07-10T06:27:08;101124.47;;;33.25;16.07
59407;BME280;45208;32.616;-115.472;2022-07-10T06:29:35;101127.72;;;33.16;16.11
59407;BME280;45208;32.616;-115.472;2022-07-10T06:32:03;101124.56;;;33.07;16.72
59407;BME280;45208;32.616;-115.472;2022-07-10T06:34:30;101118.94;;;33.07;16.08
59407;BME280;45208;32.616;-115.472;2022-07-10T06:36:57;101121.75;;;33.07;16.17
59407;BME280;45208;32.616;-115.472;2022-07-10T06:39:23;101130.59;;;33.02;16.36
59407;BME280;45208;32.616;-115.472;2022-07-10T06:41:50;101127.03;;;32.94;15.95
59407;BME280;45208;32.616;-115.472;2022-07-10T06:44:17;101115.00;;;32.87;16.65
59407;BME280;45208;32.616;-115.472;2022-07-10T06:46:44;101122.63;;;32.90;16.38
59407;BME280;45208;32.616;-115.472;2022-07-10T06:49:30;101120.22;;;32.74;16.84
59407;BME280;45208;32.616;-115.472;2022-07-10T06:51:57;101128.66;;;32.78;17.64
59407;BME280;45208;32.616;-115.472;2022-07-10T06:54:24;101122.44;;;33.32;16.39
59407;BME280;45208;32.616;-115.472;2022-07-10T06:56:51;101106.44;;;33.08;16.51
59407;BME280;45208;32.616;-115.472;2022-07-10T06:59:17;101122.66;;;32.86;16.88
59407;BME280;45208;32.616;-115.472;2022-07-10T07:01:45;101117.84;;;32.65;17.55
59407;BME280;45208;32.616;-115.472;2022-07-10T07:04:12;101117.47;;;32.56;17.82
59407;BME280;45208;32.616;-115.472;2022-07-10T07:06:39;101106.63;;;32.47;18.09
59407;BME280;45208;32.616;-115.472;2022-07-10T07:09:06;101114.28;;;32.40;17.65
59407;BME280;45208;32.616;-115.472;2022-07-10T07:11:33;101110.66;;;32.25;18.09
59407;BME280;45208;32.616;-115.472;2022-07-10T07:13:59;101107.84;;;32.22;17.88
59407;BME280;45208;32.616;-115.472;2022-07-10T07:16:28;101105.84;;;32.19;17.75
59407;BME280;45208;32.616;-115.472;2022-07-10T07:19:05;101106.66;;;32.23;17.72
59407;BME280;45208;32.616;-115.472;2022-07-10T07:21:32;101103.03;;;32.22;17.53
59407;BME280;45208;32.616;-115.472;2022-07-10T07:24:19;101102.25;;;32.14;18.02
59407;BME280;45208;32.616;-115.472;2022-07-10T07:26:47;101109.88;;;31.96;19.11
59407;BME280;45208;32.616;-115.472;2022-07-10T07:29:17;101103.03;;;31.90;18.03
59407;BME280;45208;32.616;-115.472;2022-07-10T07:31:44;101103.84;;;31.83;18.60
59407;BME280;45208;32.616;-115.472;2022-07-10T07:34:10;101094.19;;;31.74;18.38
59407;BME280;45208;32.616;-115.472;2022-07-10T07:36:38;101096.97;;;31.60;18.39
59407;BME280;45208;32.616;-115.472;2022-07-10T07:39:05;101098.19;;;31.66;18.71
59407;BME280;45208;32.616;-115.472;2022-07-10T07:41:31;101098.16;;;31.58;18.41
59407;BME280;45208;32.616;-115.472;2022-07-10T07:43:58;101109.03;;;31.64;18.00
59407;BME280;45208;32.616;-115.472;2022-07-10T07:46:25;101106.22;;;31.60;18.33
59407;BME280;45208;32.616;-115.472;2022-07-10T07:48:52;101108.59;;;31.54;18.02
59407;BME280;45208;32.616;-115.472;2022-07-10T07:51:19;101101.78;;;31.45;18.18
59407;BME280;45208;32.616;-115.472;2022-07-10T07:53:46;101106.19;;;31.46;18.29
59407;BME280;45208;32.616;-115.472;2022-07-10T07:56:14;101111.81;;;31.42;18.43
59407;BME280;45208;32.616;-115.472;2022-07-10T07:58:40;101112.28;;;31.80;17.72
59407;BME280;45208;32.616;-115.472;2022-07-10T08:01:07;101113.88;;;31.92;17.65
59407;BME280;45208;32.616;-115.472;2022-07-10T08:03:34;101122.72;;;32.08;17.97
59407;BME280;45208;32.616;-115.472;2022-07-10T08:06:01;101107.06;;;31.89;18.52
59407;BME280;45208;32.616;-115.472;2022-07-10T08:08:28;101098.22;;;31.73;18.86
59407;BME280;45208;32.616;-115.472;2022-07-10T08:10:55;101103.78;;;31.58;18.91
59407;BME280;45208;32.616;-115.472;2022-07-10T08:13:21;101108.59;;;31.58;19.43
59407;BME280;45208;32.616;-115.472;2022-07-10T08:15:52;101104.56;;;31.41;19.64
59407;BME280;45208;32.616;-115.472;2022-07-10T08:18:19;101094.50;;;31.33;19.27
59407;BME280;45208;32.616;-115.472;2022-07-10T08:20:46;101104.09;;;31.21;19.73
59407;BME280;45208;32.616;-115.472;2022-07-10T08:23:14;101107.72;;;31.18;19.49
59407;BME280;45208;32.616;-115.472;2022-07-10T08:25:41;101110.06;;;31.09;19.79
59407;BME280;45208;32.616;-115.472;2022-07-10T08:28:08;101109.97;;;30.88;20.00
59407;BME280;45208;32.616;-115.472;2022-07-10T08:30:38;101105.13;;;30.78;20.40
59407;BME280;45208;32.616;-115.472;2022-07-10T08:33:08;101111.91;;;30.73;21.11
59407;BME280;45208;32.616;-115.472;2022-07-10T08:35:37;101105.91;;;30.71;20.97
59407;BME280;45208;32.616;-115.472;2022-07-10T08:38:04;101113.03;;;30.61;21.64
59407;BME280;45208;32.616;-115.472;2022-07-10T08:40:35;101106.91;;;30.49;21.33
59407;BME280;45208;32.616;-115.472;2022-07-10T08:43:06;101104.91;;;30.46;21.61
59407;BME280;45208;32.616;-115.472;2022-07-10T08:45:33;101110.50;;;30.42;21.36
59407;BME280;45208;32.616;-115.472;2022-07-10T08:48:04;101124.94;;;30.48;21.35
59407;BME280;45208;32.616;-115.472;2022-07-10T08:50:37;101133.72;;;30.43;21.45
59407;BME280;45208;32.616;-115.472;2022-07-10T08:53:18;101128.13;;;30.43;21.73
59407;BME280;45208;32.616;-115.472;2022-07-10T08:55:49;101124.50;;;30.38;22.15
59407;BME280;45208;32.616;-115.472;2022-07-10T08:58:19;101122.03;;;30.33;22.38
59407;BME280;45208;32.616;-115.472;2022-07-10T09:00:49;101132.41;;;30.26;22.12
59407;BME280;45208;32.616;-115.472;2022-07-10T09:03:16;101136.38;;;30.21;21.88
59407;BME280;45208;32.616;-115.472;2022-07-10T09:05:43;101126.41;;;30.24;21.37
59407;BME280;45208;32.616;-115.472;2022-07-10T09:08:27;101116.66;;;30.11;21.55
59407;BME280;45208;32.616;-115.472;2022-07-10T09:11:14;101122.28;;;30.11;21.13
59407;BME280;45208;32.616;-115.472;2022-07-10T09:13:52;101115.78;;;30.03;20.69
59407;BME280;45208;32.616;-115.472;2022-07-10T09:16:28;101103.78;;;30.02;20.55
59407;BME280;45208;32.616;-115.472;2022-07-10T09:18:56;101104.97;;;30.01;20.38
59407;BME280;45208;32.616;-115.472;2022-07-10T09:21:23;101114.63;;;30.04;20.19
59407;BME280;45208;32.616;-115.472;2022-07-10T09:23:51;101109.22;;;29.85;20.51
59407;BME280;45208;32.616;-115.472;2022-07-10T09:26:21;101112.47;;;29.90;20.35
59407;BME280;45208;32.616;-115.472;2022-07-10T09:29:04;101101.25;;;29.87;20.29
59407;BME280;45208;32.616;-115.472;2022-07-10T09:31:53;101124.31;;;29.73;20.52
59407;BME280;45208;32.616;-115.472;2022-07-10T09:34:41;101119.47;;;29.66;20.77
59407;BME280;45208;32.616;-115.472;2022-07-10T09:37:21;101120.09;;;29.49;20.97
59407;BME280;45208;32.616;-115.472;2022-07-10T09:40:04;101112.75;;;29.41;20.84
59407;BME280;45208;32.616;-115.472;2022-07-10T09:42:32;101115.09;;;29.35;20.73
59407;BME280;45208;32.616;-115.472;2022-07-10T09:50:34;101107.53;;;29.39;22.41
59407;BME280;45208;32.616;-115.472;2022-07-10T09:53:04;101108.69;;;29.35;21.39
59407;BME280;45208;32.616;-115.472;2022-07-10T09:55:33;101109.09;;;29.33;20.86
59407;BME280;45208;32.616;-115.472;2022-07-10T10:00:36;101108.66;;;29.31;21.08
59407;BME280;45208;32.616;-115.472;2022-07-10T10:03:06;101109.34;;;29.21;21.11
59407;BME280;45208;32.616;-115.472;2022-07-10T10:05:42;101109.44;;;29.28;21.60
59407;BME280;45208;32.616;-115.472;2022-07-10T10:08:12;101118.16;;;29.23;21.29
59407;BME280;45208;32.616;-115.472;2022-07-10T10:10:50;101118.97;;;29.24;22.17
59407;BME280;45208;32.616;-115.472;2022-07-10T10:13:23;101103.66;;;29.14;21.56
59407;BME280;45208;32.616;-115.472;2022-07-10T10:15:51;101114.47;;;29.15;21.79
59407;BME280;45208;32.616;-115.472;2022-07-10T10:18:20;101123.59;;;29.09;21.63
59407;BME280;45208;32.616;-115.472;2022-07-10T10:20:49;101117.63;;;29.10;21.76
59407;BME280;45208;32.616;-115.472;2022-07-10T10:23:17;101124.84;;;29.11;21.67
59407;BME280;45208;32.616;-115.472;2022-07-10T10:25:51;101130.00;;;29.09;21.30
59407;BME280;45208;32.616;-115.472;2022-07-10T10:28:21;101119.16;;;29.08;22.18
59407;BME280;45208;32.616;-115.472;2022-07-10T10:30:52;101112.47;;;29.16;21.23
59407;BME280;45208;32.616;-115.472;2022-07-10T10:36:03;101124.44;;;29.13;21.75
59407;BME280;45208;32.616;-115.472;2022-07-10T10:41:30;101118.41;;;28.81;21.22
59407;BME280;45208;32.616;-115.472;2022-07-10T10:49:21;101119.41;;;28.66;22.65
59407;BME280;45208;32.616;-115.472;2022-07-10T10:54:31;101120.75;;;28.75;21.94
59407;BME280;45208;32.616;-115.472;2022-07-10T10:57:18;101131.22;;;28.82;22.08
59407;BME280;45208;32.616;-115.472;2022-07-10T10:59:58;101129.94;;;28.76;22.16
59407;BME280;45208;32.616;-115.472;2022-07-10T11:02:38;101127.06;;;28.72;22.32
59407;BME280;45208;32.616;-115.472;2022-07-10T11:08:00;101136.59;;;28.68;23.83
59407;BME280;45208;32.616;-115.472;2022-07-10T11:13:07;101139.47;;;28.45;24.69
59407;BME280;45208;32.616;-115.472;2022-07-10T11:15:40;101146.28;;;28.47;24.71
59407;BME280;45208;32.616;-115.472;2022-07-10T11:18:09;101144.72;;;28.50;24.35
59407;BME280;45208;32.616;-115.472;2022-07-10T11:28:55;101142.66;;;28.43;26.46
59407;BME280;45208;32.616;-115.472;2022-07-10T11:31:23;101138.75;;;28.51;26.49
59407;BME280;45208;32.616;-115.472;2022-07-10T11:33:53;101141.41;;;28.41;26.09
59407;BME280;45208;32.616;-115.472;2022-07-10T11:36:24;101137.69;;;28.33;26.64
59407;BME280;45208;32.616;-115.472;2022-07-10T11:39:07;101141.47;;;28.21;27.43
59407;BME280;45208;32.616;-115.472;2022-07-10T11:41:41;101154.09;;;28.12;26.74
59407;BME280;45208;32.616;-115.472;2022-07-10T11:44:13;101162.03;;;28.10;27.10
59407;BME280;45208;32.616;-115.472;2022-07-10T11:46:42;101156.63;;;27.97;27.50
59407;BME280;45208;32.616;-115.472;2022-07-10T11:49:15;101155.44;;;27.98;27.21
59407;BME280;45208;32.616;-115.472;2022-07-10T11:51:43;101158.63;;;27.97;27.48
59407;BME280;45208;32.616;-115.472;2022-07-10T11:54:14;101163.59;;;27.84;27.63
59407;BME280;45208;32.616;-115.472;2022-07-10T11:56:49;101164.69;;;27.80;27.64
59407;BME280;45208;32.616;-115.472;2022-07-10T11:59:23;101166.00;;;27.86;27.65
59407;BME280;45208;32.616;-115.472;2022-07-10T12:01:52;101180.16;;;27.96;27.57
59407;BME280;45208;32.616;-115.472;2022-07-10T12:04:20;101183.53;;;28.06;27.71
59407;BME280;45208;32.616;-115.472;2022-07-10T12:06:54;101175.84;;;27.80;28.20
59407;BME280;45208;32.616;-115.472;2022-07-10T12:09:22;101177.22;;;27.66;28.41
59407;BME280;45208;32.616;-115.472;2022-07-10T12:12:02;101194.78;;;27.67;28.70
59407;BME280;45208;32.616;-115.472;2022-07-10T12:14:30;101184.34;;;27.64;28.62
59407;BME280;45208;32.616;-115.472;2022-07-10T12:16:58;101193.75;;;27.75;28.39
59407;BME280;45208;32.616;-115.472;2022-07-10T12:19:29;101188.91;;;27.72;29.22
59407;BME280;45208;32.616;-115.472;2022-07-10T12:21:59;101190.03;;;27.90;28.66
59407;BME280;45208;32.616;-115.472;2022-07-10T12:24:27;101191.22;;;27.89;28.88
59407;BME280;45208;32.616;-115.472;2022-07-10T12:26:54;101191.88;;;27.83;29.43
59407;BME280;45208;32.616;-115.472;2022-07-10T12:29:26;101196.81;;;27.89;29.43
59407;BME280;45208;32.616;-115.472;2022-07-10T12:31:58;101204.44;;;27.92;30.12
59407;BME280;45208;32.616;-115.472;2022-07-10T12:34:38;101204.31;;;27.85;29.96
59407;BME280;45208;32.616;-115.472;2022-07-10T12:37:14;101213.59;;;27.70;30.36
59407;BME280;45208;32.616;-115.472;2022-07-10T12:39:48;101212.97;;;27.61;30.87
59407;BME280;45208;32.616;-115.472;2022-07-10T12:42:31;101217.63;;;27.53;30.72
59407;BME280;45208;32.616;-115.472;2022-07-10T12:45:11;101227.19;;;27.52;30.44
59407;BME280;45208;32.616;-115.472;2022-07-10T12:47:48;101231.16;;;27.51;30.57
59407;BME280;45208;32.616;-115.472;2022-07-10T12:50:17;101229.59;;;27.54;30.39
59407;BME280;45208;32.616;-115.472;2022-07-10T12:52:44;101226.19;;;27.45;30.49
59407;BME280;45208;32.616;-115.472;2022-07-10T12:55:12;101225.31;;;27.40;31.26
59407;BME280;45208;32.616;-115.472;2022-07-10T12:57:58;101230.03;;;27.36;31.60
59407;BME280;45208;32.616;-115.472;2022-07-10T13:08:17;101242.31;;;27.51;31.68
59407;BME280;45208;32.616;-115.472;2022-07-10T13:10:56;101249.06;;;27.50;32.02
59407;BME280;45208;32.616;-115.472;2022-07-10T13:13:24;101251.19;;;27.57;32.53
59407;BME280;45208;32.616;-115.472;2022-07-10T13:15:52;101242.88;;;27.60;32.66
59407;BME280;45208;32.616;-115.472;2022-07-10T13:18:25;101246.75;;;27.72;32.52